sensor_id;sensor_type;location;lat;lon;timestamp;temperature;humidity
75281;HTU21D;63874;47.230;39.620;2022-12-20T00:01:15;-3.32;72.38
75281;HTU21D;63874;47.230;39.620;2022-12-20T00:03:41;-3.36;72.34
75281;HTU21D;63874;47.230;39.620;2022-12-20T00:06:10;-3.35;72.61
75281;HTU21D;63874;47.230;39.620;2022-12-20T00:08:37;-3.34;72.90
75281;HTU21D;63874;47.230;39.620;2022-12-20T00:11:05;-3.27;72.99
75281;HTU21D;63874;47.230;39.620;2022-12-20T00:13:31;-3.30;72.59
75281;HTU21D;63874;47.230;39.620;2022-12-20T00:16:13;-3.31;72.64
75281;HTU21D;63874;47.230;39.620;2022-12-20T00:18:39;-3.30;72.61
75281;HTU21D;63874;47.230;39.620;2022-12-20T00:21:07;-3.30;72.54
75281;HTU21D;63874;47.230;39.620;2022-12-20T00:23:34;-3.26;72.43
75281;HTU21D;63874;47.230;39.620;2022-12-20T00:26:03;-3.32;72.61
75281;HTU21D;63874;47.230;39.620;2022-12-20T00:28:30;-3.34;72.45
75281;HTU21D;63874;47.230;39.620;2022-12-20T00:30:56;-3.27;72.50
75281;HTU21D;63874;47.230;39.620;2022-12-20T00:33:25;-3.33;72.46
75281;HTU21D;63874;47.230;39.620;2022-12-20T00:35:51;-3.28;72.67
75281;HTU21D;63874;47.230;39.620;2022-12-20T00:38:18;-3.33;72.35
75281;HTU21D;63874;47.230;39.620;2022-12-20T00:40:45;-3.38;72.47
75281;HTU21D;63874;47.230;39.620;2022-12-20T00:43:11;-3.40;72.95
75281;HTU21D;63874;47.230;39.620;2022-12-20T00:45:37;-3.46;72.90
75281;HTU21D;63874;47.230;39.620;2022-12-20T00:48:04;-3.50;73.35
75281;HTU21D;63874;47.230;39.620;2022-12-20T00:50:30;-3.52;73.26
75281;HTU21D;63874;47.230;39.620;2022-12-20T00:52:56;-3.61;73.28
75281;HTU21D;63874;47.230;39.620;2022-12-20T00:55:22;-3.63;73.72
75281;HTU21D;63874;47.230;39.620;2022-12-20T00:57:48;-3.60;74.10
75281;HTU21D;63874;47.230;39.620;2022-12-20T01:00:14;-3.64;73.85
75281;HTU21D;63874;47.230;39.620;2022-12-20T01:02:40;-3.67;73.93
75281;HTU21D;63874;47.230;39.620;2022-12-20T01:05:06;-3.68;74.05
75281;HTU21D;63874;47.230;39.620;2022-12-20T01:07:32;-3.63;74.28
75281;HTU21D;63874;47.230;39.620;2022-12-20T01:09:57;-3.66;74.38
75281;HTU21D;63874;47.230;39.620;2022-12-20T01:12:23;-3.66;74.76
75281;HTU21D;63874;47.230;39.620;2022-12-20T01:14:49;-3.68;74.44
75281;HTU21D;63874;47.230;39.620;2022-12-20T01:17:15;-3.65;74.61
75281;HTU21D;63874;47.230;39.620;2022-12-20T01:19:42;-3.64;74.69
75281;HTU21D;63874;47.230;39.620;2022-12-20T01:22:07;-3.61;74.75
75281;HTU21D;63874;47.230;39.620;2022-12-20T01:24:33;-3.66;74.48
75281;HTU21D;63874;47.230;39.620;2022-12-20T01:26:59;-3.66;74.50
75281;HTU21D;63874;47.230;39.620;2022-12-20T01:29:25;-3.69;74.56
75281;HTU21D;63874;47.230;39.620;2022-12-20T01:31:51;-3.70;74.47
75281;HTU21D;63874;47.230;39.620;2022-12-20T01:34:18;-3.76;74.56
75281;HTU21D;63874;47.230;39.620;2022-12-20T01:36:44;-3.77;74.67
75281;HTU21D;63874;47.230;39.620;2022-12-20T01:39:13;-3.82;74.44
75281;HTU21D;63874;47.230;39.620;2022-12-20T01:41:41;-3.92;74.93
75281;HTU21D;63874;47.230;39.620;2022-12-20T01:46:44;-3.92;74.76
75281;HTU21D;63874;47.230;39.620;2022-12-20T01:49:15;-3.94;74.72
75281;HTU21D;63874;47.230;39.620;2022-12-20T01:51:46;-3.94;74.93
75281;HTU21D;63874;47.230;39.620;2022-12-20T01:54:44;-3.94;74.76
75281;HTU21D;63874;47.230;39.620;2022-12-20T01:57:15;-3.98;74.80
75281;HTU21D;63874;47.230;39.620;2022-12-20T01:59:45;-3.96;74.72
75281;HTU21D;63874;47.230;39.620;2022-12-20T02:02:13;-3.96;74.67
75281;HTU21D;63874;47.230;39.620;2022-12-20T02:04:39;-3.94;74.69
75281;HTU21D;63874;47.230;39.620;2022-12-20T02:07:07;-3.90;74.76
75281;HTU21D;63874;47.230;39.620;2022-12-20T02:09:36;-3.86;74.59
75281;HTU21D;63874;47.230;39.620;2022-12-20T02:12:15;-3.89;74.58
75281;HTU21D;63874;47.230;39.620;2022-12-20T02:17:55;-3.96;74.56
75281;HTU21D;63874;47.230;39.620;2022-12-20T02:31:39;-4.10;74.96
75281;HTU21D;63874;47.230;39.620;2022-12-20T02:34:09;-4.13;75.10
75281;HTU21D;63874;47.230;39.620;2022-12-20T02:36:36;-4.13;75.21
75281;HTU21D;63874;47.230;39.620;2022-12-20T02:39:03;-4.15;75.34
75281;HTU21D;63874;47.230;39.620;2022-12-20T02:41:35;-4.16;75.20
75281;HTU21D;63874;47.230;39.620;2022-12-20T02:44:13;-4.19;75.38
75281;HTU21D;63874;47.230;39.620;2022-12-20T02:47:08;-4.15;75.28
75281;HTU21D;63874;47.230;39.620;2022-12-20T02:49:38;-4.17;75.31
75281;HTU21D;63874;47.230;39.620;2022-12-20T02:52:09;-4.16;75.29
75281;HTU21D;63874;47.230;39.620;2022-12-20T02:54:37;-4.19;75.44
75281;HTU21D;63874;47.230;39.620;2022-12-20T02:57:17;-4.16;75.52
75281;HTU21D;63874;47.230;39.620;2022-12-20T03:00:07;-4.24;75.23
75281;HTU21D;63874;47.230;39.620;2022-12-20T03:02:35;-4.32;75.35
75281;HTU21D;63874;47.230;39.620;2022-12-20T03:05:23;-4.34;75.52
75281;HTU21D;63874;47.230;39.620;2022-12-20T03:07:50;-4.32;75.64
75281;HTU21D;63874;47.230;39.620;2022-12-20T03:10:22;-4.37;75.68
75281;HTU21D;63874;47.230;39.620;2022-12-20T03:12:48;-4.34;75.68
75281;HTU21D;63874;47.230;39.620;2022-12-20T03:15:14;-4.28;75.76
75281;HTU21D;63874;47.230;39.620;2022-12-20T03:17:41;-4.34;75.50
75281;HTU21D;63874;47.230;39.620;2022-12-20T03:20:08;-4.38;75.64
75281;HTU21D;63874;47.230;39.620;2022-12-20T03:22:36;-4.38;75.86
75281;HTU21D;63874;47.230;39.620;2022-12-20T03:25:03;-4.41;75.89
75281;HTU21D;63874;47.230;39.620;2022-12-20T03:27:31;-4.41;76.02
75281;HTU21D;63874;47.230;39.620;2022-12-20T03:29:58;-4.40;76.08
75281;HTU21D;63874;47.230;39.620;2022-12-20T03:32:24;-4.35;76.03
75281;HTU21D;63874;47.230;39.620;2022-12-20T03:34:50;-4.34;75.92
75281;HTU21D;63874;47.230;39.620;2022-12-20T03:37:23;-4.35;75.99
75281;HTU21D;63874;47.230;39.620;2022-12-20T03:39:49;-4.29;76.14
75281;HTU21D;63874;47.230;39.620;2022-12-20T03:42:16;-4.27;76.04
75281;HTU21D;63874;47.230;39.620;2022-12-20T03:44:42;-4.26;76.11
75281;HTU21D;63874;47.230;39.620;2022-12-20T03:47:09;-4.28;76.01
75281;HTU21D;63874;47.230;39.620;2022-12-20T03:49:36;-4.24;76.07
75281;HTU21D;63874;47.230;39.620;2022-12-20T03:52:02;-4.28;76.07
75281;HTU21D;63874;47.230;39.620;2022-12-20T03:54:28;-4.30;75.98
75281;HTU21D;63874;47.230;39.620;2022-12-20T03:57:07;-4.36;76.06
75281;HTU21D;63874;47.230;39.620;2022-12-20T03:59:33;-4.38;76.38
75281;HTU21D;63874;47.230;39.620;2022-12-20T04:02:02;-4.40;76.22
75281;HTU21D;63874;47.230;39.620;2022-12-20T04:04:28;-4.44;76.50
75281;HTU21D;63874;47.230;39.620;2022-12-20T04:06:54;-4.42;76.92
75281;HTU21D;63874;47.230;39.620;2022-12-20T04:09:21;-4.44;76.57
75281;HTU21D;63874;47.230;39.620;2022-12-20T04:11:52;-4.44;76.72
75281;HTU21D;63874;47.230;39.620;2022-12-20T04:14:18;-4.48;76.84
75281;HTU21D;63874;47.230;39.620;2022-12-20T04:16:45;-4.45;77.16
75281;HTU21D;63874;47.230;39.620;2022-12-20T04:19:12;-4.40;76.85
75281;HTU21D;63874;47.230;39.620;2022-12-20T04:21:42;-4.38;77.01
75281;HTU21D;63874;47.230;39.620;2022-12-20T04:24:09;-4.32;76.82
75281;HTU21D;63874;47.230;39.620;2022-12-20T04:26:59;-4.28;76.46
75281;HTU21D;63874;47.230;39.620;2022-12-20T04:29:25;-4.35;76.66
75281;HTU21D;63874;47.230;39.620;2022-12-20T04:31:51;-4.40;76.40
75281;HTU21D;63874;47.230;39.620;2022-12-20T04:34:18;-4.46;76.76
75281;HTU21D;63874;47.230;39.620;2022-12-20T04:36:44;-4.52;76.64
75281;HTU21D;63874;47.230;39.620;2022-12-20T04:39:16;-4.56;76.72
75281;HTU21D;63874;47.230;39.620;2022-12-20T04:42:21;-4.55;76.79
75281;HTU21D;63874;47.230;39.620;2022-12-20T04:44:49;-4.55;76.70
75281;HTU21D;63874;47.230;39.620;2022-12-20T04:47:23;-4.52;76.86
75281;HTU21D;63874;47.230;39.620;2022-12-20T04:49:49;-4.56;76.91
75281;HTU21D;63874;47.230;39.620;2022-12-20T04:52:15;-4.54;77.15
75281;HTU21D;63874;47.230;39.620;2022-12-20T04:54:59;-4.54;77.25
75281;HTU21D;63874;47.230;39.620;2022-12-20T04:57:29;-4.60;77.64
75281;HTU21D;63874;47.230;39.620;2022-12-20T04:59:55;-4.52;77.38
75281;HTU21D;63874;47.230;39.620;2022-12-20T05:02:21;-4.50;77.31
75281;HTU21D;63874;47.230;39.620;2022-12-20T05:04:50;-4.52;77.15
75281;HTU21D;63874;47.230;39.620;2022-12-20T05:07:16;-4.54;77.03
75281;HTU21D;63874;47.230;39.620;2022-12-20T05:09:48;-4.52;77.09
75281;HTU21D;63874;47.230;39.620;2022-12-20T05:12:14;-4.50;77.18
75281;HTU21D;63874;47.230;39.620;2022-12-20T05:14:40;-4.50;76.90
75281;HTU21D;63874;47.230;39.620;2022-12-20T05:17:06;-4.52;76.63
75281;HTU21D;63874;47.230;39.620;2022-12-20T05:19:34;-4.51;76.72
75281;HTU21D;63874;47.230;39.620;2022-12-20T05:22:01;-4.52;76.65
75281;HTU21D;63874;47.230;39.620;2022-12-20T05:25:00;-4.55;76.71
75281;HTU21D;63874;47.230;39.620;2022-12-20T05:27:45;-4.54;76.92
75281;HTU21D;63874;47.230;39.620;2022-12-20T05:30:11;-4.52;76.91
75281;HTU21D;63874;47.230;39.620;2022-12-20T05:32:38;-4.49;76.96
75281;HTU21D;63874;47.230;39.620;2022-12-20T05:35:04;-4.51;76.90
75281;HTU21D;63874;47.230;39.620;2022-12-20T05:37:31;-4.46;76.97
75281;HTU21D;63874;47.230;39.620;2022-12-20T05:40:07;-4.50;76.89
75281;HTU21D;63874;47.230;39.620;2022-12-20T05:42:35;-4.49;77.13
75281;HTU21D;63874;47.230;39.620;2022-12-20T05:45:02;-4.48;77.11
75281;HTU21D;63874;47.230;39.620;2022-12-20T05:47:31;-4.46;77.29
75281;HTU21D;63874;47.230;39.620;2022-12-20T05:50:04;-4.50;77.20
75281;HTU21D;63874;47.230;39.620;2022-12-20T05:52:36;-4.53;77.35
75281;HTU21D;63874;47.230;39.620;2022-12-20T05:55:04;-4.51;77.43
75281;HTU21D;63874;47.230;39.620;2022-12-20T05:57:30;-4.48;77.42
75281;HTU21D;63874;47.230;39.620;2022-12-20T05:59:56;-4.40;77.41
75281;HTU21D;63874;47.230;39.620;2022-12-20T06:02:24;-4.31;77.18
75281;HTU21D;63874;47.230;39.620;2022-12-20T06:04:56;-4.28;77.01
75281;HTU21D;63874;47.230;39.620;2022-12-20T06:07:24;-4.27;76.84
75281;HTU21D;63874;47.230;39.620;2022-12-20T06:09:57;-4.27;77.04
75281;HTU21D;63874;47.230;39.620;2022-12-20T06:12:39;-4.22;76.95
75281;HTU21D;63874;47.230;39.620;2022-12-20T06:15:05;-4.20;76.94
75281;HTU21D;63874;47.230;39.620;2022-12-20T06:17:33;-4.13;77.05
75281;HTU21D;63874;47.230;39.620;2022-12-20T06:20:01;-4.05;76.80
75281;HTU21D;63874;47.230;39.620;2022-12-20T06:22:27;-3.98;76.48
75281;HTU21D;63874;47.230;39.620;2022-12-20T06:24:55;-3.91;76.49
75281;HTU21D;63874;47.230;39.620;2022-12-20T06:27:25;-3.84;76.27
75281;HTU21D;63874;47.230;39.620;2022-12-20T06:30:05;-3.78;75.91
75281;HTU21D;63874;47.230;39.620;2022-12-20T06:32:44;-3.77;75.96
75281;HTU21D;63874;47.230;39.620;2022-12-20T06:35:11;-3.71;75.73
75281;HTU21D;63874;47.230;39.620;2022-12-20T06:37:37;-3.69;75.83
75281;HTU21D;63874;47.230;39.620;2022-12-20T06:40:08;-3.64;75.93
75281;HTU21D;63874;47.230;39.620;2022-12-20T06:42:35;-3.57;75.93
75281;HTU21D;63874;47.230;39.620;2022-12-20T06:45:01;-3.49;75.49
75281;HTU21D;63874;47.230;39.620;2022-12-20T06:47:28;-3.50;75.59
75281;HTU21D;63874;47.230;39.620;2022-12-20T06:49:54;-3.45;75.67
75281;HTU21D;63874;47.230;39.620;2022-12-20T06:52:22;-3.41;75.73
75281;HTU21D;63874;47.230;39.620;2022-12-20T06:54:50;-3.31;75.61
75281;HTU21D;63874;47.230;39.620;2022-12-20T06:57:18;-3.22;74.85
75281;HTU21D;63874;47.230;39.620;2022-12-20T06:59:46;-3.19;74.93
75281;HTU21D;63874;47.230;39.620;2022-12-20T07:02:13;-3.16;75.15
75281;HTU21D;63874;47.230;39.620;2022-12-20T07:04:39;-3.10;75.27
75281;HTU21D;63874;47.230;39.620;2022-12-20T07:07:05;-2.97;74.84
75281;HTU21D;63874;47.230;39.620;2022-12-20T07:09:32;-2.91;74.57
75281;HTU21D;63874;47.230;39.620;2022-12-20T07:11:58;-2.82;74.29
75281;HTU21D;63874;47.230;39.620;2022-12-20T07:14:24;-2.77;74.13
75281;HTU21D;63874;47.230;39.620;2022-12-20T07:16:50;-2.71;74.13
75281;HTU21D;63874;47.230;39.620;2022-12-20T07:19:17;-2.66;74.29
75281;HTU21D;63874;47.230;39.620;2022-12-20T07:21:43;-2.57;73.90
75281;HTU21D;63874;47.230;39.620;2022-12-20T07:24:09;-2.53;74.16
75281;HTU21D;63874;47.230;39.620;2022-12-20T07:26:34;-2.48;74.41
75281;HTU21D;63874;47.230;39.620;2022-12-20T07:29:00;-2.41;74.62
75281;HTU21D;63874;47.230;39.620;2022-12-20T07:31:26;-2.30;74.64
75281;HTU21D;63874;47.230;39.620;2022-12-20T07:33:53;-2.19;74.38
75281;HTU21D;63874;47.230;39.620;2022-12-20T07:36:19;-2.12;74.48
75281;HTU21D;63874;47.230;39.620;2022-12-20T07:38:45;-2.01;74.47
75281;HTU21D;63874;47.230;39.620;2022-12-20T07:41:13;-1.92;74.12
75281;HTU21D;63874;47.230;39.620;2022-12-20T07:43:41;-1.86;74.05
75281;HTU21D;63874;47.230;39.620;2022-12-20T07:46:07;-1.79;74.07
75281;HTU21D;63874;47.230;39.620;2022-12-20T07:48:33;-1.72;73.96
75281;HTU21D;63874;47.230;39.620;2022-12-20T07:51:08;-1.64;73.99
75281;HTU21D;63874;47.230;39.620;2022-12-20T07:53:38;-1.55;73.82
75281;HTU21D;63874;47.230;39.620;2022-12-20T07:56:06;-1.44;73.65
75281;HTU21D;63874;47.230;39.620;2022-12-20T07:58:33;-1.31;73.15
75281;HTU21D;63874;47.230;39.620;2022-12-20T08:01:00;-1.25;73.20
75281;HTU21D;63874;47.230;39.620;2022-12-20T08:03:31;-1.14;72.63
75281;HTU21D;63874;47.230;39.620;2022-12-20T08:05:59;-1.05;72.83
75281;HTU21D;63874;47.230;39.620;2022-12-20T08:08:30;-0.93;72.69
75281;HTU21D;63874;47.230;39.620;2022-12-20T08:10:57;-0.81;72.33
75281;HTU21D;63874;47.230;39.620;2022-12-20T08:13:23;-0.71;72.02
75281;HTU21D;63874;47.230;39.620;2022-12-20T08:15:49;-0.61;71.92
75281;HTU21D;63874;47.230;39.620;2022-12-20T08:18:15;-0.54;71.87
75281;HTU21D;63874;47.230;39.620;2022-12-20T08:20:41;-0.46;71.36
75281;HTU21D;63874;47.230;39.620;2022-12-20T08:23:07;-0.43;71.27
75281;HTU21D;63874;47.230;39.620;2022-12-20T08:25:33;-0.37;70.73
75281;HTU21D;63874;47.230;39.620;2022-12-20T08:27:59;-0.36;71.32
75281;HTU21D;63874;47.230;39.620;2022-12-20T08:30:27;-0.27;71.67
75281;HTU21D;63874;47.230;39.620;2022-12-20T08:32:54;-0.16;71.65
75281;HTU21D;63874;47.230;39.620;2022-12-20T08:35:21;-0.01;71.35
75281;HTU21D;63874;47.230;39.620;2022-12-20T08:37:50;0.12;70.84
75281;HTU21D;63874;47.230;39.620;2022-12-20T08:40:17;0.23;70.74
75281;HTU21D;63874;47.230;39.620;2022-12-20T08:42:43;0.39;70.54
75281;HTU21D;63874;47.230;39.620;2022-12-20T08:45:09;0.53;70.43
75281;HTU21D;63874;47.230;39.620;2022-12-20T08:47:35;0.68;69.41
75281;HTU21D;63874;47.230;39.620;2022-12-20T08:50:01;0.80;69.52
75281;HTU21D;63874;47.230;39.620;2022-12-20T08:52:27;0.91;68.19
75281;HTU21D;63874;47.230;39.620;2022-12-20T08:54:54;0.98;69.38
75281;HTU21D;63874;47.230;39.620;2022-12-20T08:57:19;1.09;68.75
75281;HTU21D;63874;47.230;39.620;2022-12-20T08:59:45;1.19;69.28
75281;HTU21D;63874;47.230;39.620;2022-12-20T09:02:11;1.32;69.10
75281;HTU21D;63874;47.230;39.620;2022-12-20T09:04:37;1.46;69.47
75281;HTU21D;63874;47.230;39.620;2022-12-20T09:07:03;1.55;69.15
75281;HTU21D;63874;47.230;39.620;2022-12-20T09:09:29;1.84;69.49
75281;HTU21D;63874;47.230;39.620;2022-12-20T09:11:55;2.50;68.08
75281;HTU21D;63874;47.230;39.620;2022-12-20T09:14:22;3.47;66.27
75281;HTU21D;63874;47.230;39.620;2022-12-20T09:16:48;4.52;64.21
75281;HTU21D;63874;47.230;39.620;2022-12-20T09:19:14;5.61;62.21
75281;HTU21D;63874;47.230;39.620;2022-12-20T09:21:40;6.51;60.25
75281;HTU21D;63874;47.230;39.620;2022-12-20T09:24:06;7.20;58.35
75281;HTU21D;63874;47.230;39.620;2022-12-20T09:26:32;7.65;57.61
75281;HTU21D;63874;47.230;39.620;2022-12-20T09:29:00;8.17;56.49
75281;HTU21D;63874;47.230;39.620;2022-12-20T09:31:26;8.67;56.20
75281;HTU21D;63874;47.230;39.620;2022-12-20T09:33:54;9.20;54.85
75281;HTU21D;63874;47.230;39.620;2022-12-20T09:36:21;9.66;51.56
75281;HTU21D;63874;47.230;39.620;2022-12-20T09:38:48;10.33;51.23
75281;HTU21D;63874;47.230;39.620;2022-12-20T09:41:38;10.93;49.65
75281;HTU21D;63874;47.230;39.620;2022-12-20T09:46:38;11.54;48.79
75281;HTU21D;63874;47.230;39.620;2022-12-20T09:49:04;11.97;47.55
75281;HTU21D;63874;47.230;39.620;2022-12-20T09:54:41;13.15;43.55
75281;HTU21D;63874;47.230;39.620;2022-12-20T09:57:17;13.56;41.45
75281;HTU21D;63874;47.230;39.620;2022-12-20T09:59:45;13.76;40.40
75281;HTU21D;63874;47.230;39.620;2022-12-20T10:02:21;13.46;40.86
75281;HTU21D;63874;47.230;39.620;2022-12-20T10:04:48;13.32;40.24
75281;HTU21D;63874;47.230;39.620;2022-12-20T10:07:28;13.39;41.04
75281;HTU21D;63874;47.230;39.620;2022-12-20T10:13:22;14.22;38.09
75281;HTU21D;63874;47.230;39.620;2022-12-20T10:18:47;15.21;37.01
75281;HTU21D;63874;47.230;39.620;2022-12-20T10:24:18;15.51;33.86
75281;HTU21D;63874;47.230;39.620;2022-12-20T10:26:47;15.60;35.70
75281;HTU21D;63874;47.230;39.620;2022-12-20T10:29:14;15.70;35.12
75281;HTU21D;63874;47.230;39.620;2022-12-20T10:31:41;15.87;34.65
75281;HTU21D;63874;47.230;39.620;2022-12-20T10:34:07;15.87;34.39
75281;HTU21D;63874;47.230;39.620;2022-12-20T10:36:35;15.83;34.18
75281;HTU21D;63874;47.230;39.620;2022-12-20T10:39:06;16.00;33.93
75281;HTU21D;63874;47.230;39.620;2022-12-20T10:41:46;16.02;32.19
75281;HTU21D;63874;47.230;39.620;2022-12-20T10:44:29;16.10;32.39
75281;HTU21D;63874;47.230;39.620;2022-12-20T10:46:59;15.88;32.83
75281;HTU21D;63874;47.230;39.620;2022-12-20T10:52:09;14.91;34.25
75281;HTU21D;63874;47.230;39.620;2022-12-20T10:59:52;15.38;33.97
75281;HTU21D;63874;47.230;39.620;2022-12-20T11:02:39;15.17;32.88
75281;HTU21D;63874;47.230;39.620;2022-12-20T11:07:34;14.68;34.98
75281;HTU21D;63874;47.230;39.620;2022-12-20T11:10:19;14.94;33.22
75281;HTU21D;63874;47.230;39.620;2022-12-20T11:12:56;15.37;33.70
75281;HTU21D;63874;47.230;39.620;2022-12-20T11:15:30;15.53;33.08
75281;HTU21D;63874;47.230;39.620;2022-12-20T11:18:09;14.71;33.03
75281;HTU21D;63874;47.230;39.620;2022-12-20T11:20:40;13.46;33.65
75281;HTU21D;63874;47.230;39.620;2022-12-20T11:28:16;10.00;37.31
75281;HTU21D;63874;47.230;39.620;2022-12-20T11:36:35;7.23;41.85
75281;HTU21D;63874;47.230;39.620;2022-12-20T11:39:33;6.50;43.02
75281;HTU21D;63874;47.230;39.620;2022-12-20T11:42:59;5.75;44.47
75281;HTU21D;63874;47.230;39.620;2022-12-20T11:45:19;5.12;46.15
75281;HTU21D;63874;47.230;39.620;2022-12-20T11:55:51;3.84;49.52
75281;HTU21D;63874;47.230;39.620;2022-12-20T11:58:30;3.61;50.13
75281;HTU21D;63874;47.230;39.620;2022-12-20T12:00:59;3.46;50.89
75281;HTU21D;63874;47.230;39.620;2022-12-20T12:03:33;3.29;51.15
75281;HTU21D;63874;47.230;39.620;2022-12-20T12:06:35;3.11;51.78
75281;HTU21D;63874;47.230;39.620;2022-12-20T12:09:27;2.96;52.23
75281;HTU21D;63874;47.230;39.620;2022-12-20T12:12:07;2.84;52.79
75281;HTU21D;63874;47.230;39.620;2022-12-20T12:17:59;2.64;53.70
75281;HTU21D;63874;47.230;39.620;2022-12-20T12:23:22;2.49;54.28
75281;HTU21D;63874;47.230;39.620;2022-12-20T12:25:50;2.41;54.33
75281;HTU21D;63874;47.230;39.620;2022-12-20T12:28:17;2.37;54.68
75281;HTU21D;63874;47.230;39.620;2022-12-20T12:30:52;2.30;54.84
75281;HTU21D;63874;47.230;39.620;2022-12-20T12:33:30;2.27;55.04
75281;HTU21D;63874;47.230;39.620;2022-12-20T12:46:53;1.93;56.13
75281;HTU21D;63874;47.230;39.620;2022-12-20T12:49:21;1.87;56.37
75281;HTU21D;63874;47.230;39.620;2022-12-20T12:51:56;1.84;56.55
75281;HTU21D;63874;47.230;39.620;2022-12-20T12:54:35;1.78;56.69
75281;HTU21D;63874;47.230;39.620;2022-12-20T12:57:16;1.75;56.84
75281;HTU21D;63874;47.230;39.620;2022-12-20T12:59:47;1.70;57.02
75281;HTU21D;63874;47.230;39.620;2022-12-20T13:09:58;1.41;57.63
75281;HTU21D;63874;47.230;39.620;2022-12-20T13:20:24;1.27;58.48
75281;HTU21D;63874;47.230;39.620;2022-12-20T13:25:48;1.21;58.85
75281;HTU21D;63874;47.230;39.620;2022-12-20T13:41:18;0.91;60.00
75281;HTU21D;63874;47.230;39.620;2022-12-20T13:43:46;0.89;60.22
75281;HTU21D;63874;47.230;39.620;2022-12-20T13:46:21;0.78;60.76
75281;HTU21D;63874;47.230;39.620;2022-12-20T13:48:51;0.76;60.83
75281;HTU21D;63874;47.230;39.620;2022-12-20T13:51:23;0.71;60.93
75281;HTU21D;63874;47.230;39.620;2022-12-20T13:54:07;0.66;61.38
75281;HTU21D;63874;47.230;39.620;2022-12-20T13:56:50;0.60;61.33
75281;HTU21D;63874;47.230;39.620;2022-12-20T13:59:31;0.54;61.41
75281;HTU21D;63874;47.230;39.620;2022-12-20T14:02:08;0.49;61.47
75281;HTU21D;63874;47.230;39.620;2022-12-20T14:04:43;0.45;61.63
75281;HTU21D;63874;47.230;39.620;2022-12-20T14:07:15;0.43;61.89
75281;HTU21D;63874;47.230;39.620;2022-12-20T14:09:47;0.45;62.12
75281;HTU21D;63874;47.230;39.620;2022-12-20T14:12:19;0.45;62.16
75281;HTU21D;63874;47.230;39.620;2022-12-20T14:14:46;0.43;62.22
75281;HTU21D;63874;47.230;39.620;2022-12-20T14:19:42;0.34;62.37
75281;HTU21D;63874;47.230;39.620;2022-12-20T14:22:11;0.31;62.61
75281;HTU21D;63874;47.230;39.620;2022-12-20T14:24:42;0.29;62.67
75281;HTU21D;63874;47.230;39.620;2022-12-20T14:27:11;0.32;62.68
75281;HTU21D;63874;47.230;39.620;2022-12-20T14:29:39;0.30;62.64
75281;HTU21D;63874;47.230;39.620;2022-12-20T14:32:18;0.25;62.68
75281;HTU21D;63874;47.230;39.620;2022-12-20T14:34:45;0.24;62.73
75281;HTU21D;63874;47.230;39.620;2022-12-20T14:37:34;0.23;62.94
75281;HTU21D;63874;47.230;39.620;2022-12-20T14:40:13;0.20;62.79
75281;HTU21D;63874;47.230;39.620;2022-12-20T14:42:40;0.15;62.93
75281;HTU21D;63874;47.230;39.620;2022-12-20T14:47:35;0.08;63.21
75281;HTU21D;63874;47.230;39.620;2022-12-20T14:50:21;0.06;63.40
75281;HTU21D;63874;47.230;39.620;2022-12-20T14:52:48;0.02;63.39
75281;HTU21D;63874;47.230;39.620;2022-12-20T14:55:17;0.02;63.48
75281;HTU21D;63874;47.230;39.620;2022-12-20T14:57:46;-0.00;63.58
75281;HTU21D;63874;47.230;39.620;2022-12-20T15:02:57;-0.03;63.85
75281;HTU21D;63874;47.230;39.620;2022-12-20T15:08:18;-0.08;63.98
75281;HTU21D;63874;47.230;39.620;2022-12-20T15:13:32;-0.15;64.11
75281;HTU21D;63874;47.230;39.620;2022-12-20T15:16:25;-0.20;64.24
75281;HTU21D;63874;47.230;39.620;2022-12-20T15:18:51;-0.24;64.40
75281;HTU21D;63874;47.230;39.620;2022-12-20T15:21:32;-0.25;64.58
75281;HTU21D;63874;47.230;39.620;2022-12-20T15:24:01;-0.27;64.55
75281;HTU21D;63874;47.230;39.620;2022-12-20T15:26:29;-0.26;64.64
75281;HTU21D;63874;47.230;39.620;2022-12-20T15:28:55;-0.27;64.70
75281;HTU21D;63874;47.230;39.620;2022-12-20T15:31:22;-0.28;64.75
75281;HTU21D;63874;47.230;39.620;2022-12-20T15:33:50;-0.29;64.72
75281;HTU21D;63874;47.230;39.620;2022-12-20T15:36:21;-0.34;64.76
75281;HTU21D;63874;47.230;39.620;2022-12-20T15:38:48;-0.35;64.83
75281;HTU21D;63874;47.230;39.620;2022-12-20T15:41:29;-0.38;64.99
75281;HTU21D;63874;47.230;39.620;2022-12-20T15:44:19;-0.39;65.17
75281;HTU21D;63874;47.230;39.620;2022-12-20T15:46:46;-0.41;65.19
75281;HTU21D;63874;47.230;39.620;2022-12-20T15:49:23;-0.41;65.34
75281;HTU21D;63874;47.230;39.620;2022-12-20T15:51:51;-0.40;65.48
75281;HTU21D;63874;47.230;39.620;2022-12-20T15:54:33;-0.40;65.56
75281;HTU21D;63874;47.230;39.620;2022-12-20T15:57:02;-0.42;65.50
75281;HTU21D;63874;47.230;39.620;2022-12-20T15:59:30;-0.44;65.57
75281;HTU21D;63874;47.230;39.620;2022-12-20T16:01:56;-0.43;65.72
75281;HTU21D;63874;47.230;39.620;2022-12-20T16:04:22;-0.44;65.77
75281;HTU21D;63874;47.230;39.620;2022-12-20T16:06:49;-0.46;65.81
75281;HTU21D;63874;47.230;39.620;2022-12-20T16:09:18;-0.49;65.86
75281;HTU21D;63874;47.230;39.620;2022-12-20T16:11:45;-0.51;65.93
75281;HTU21D;63874;47.230;39.620;2022-12-20T16:14:16;-0.50;66.02
75281;HTU21D;63874;47.230;39.620;2022-12-20T16:16:43;-0.52;66.06
75281;HTU21D;63874;47.230;39.620;2022-12-20T16:19:10;-0.54;66.18
75281;HTU21D;63874;47.230;39.620;2022-12-20T16:21:56;-0.55;66.35
75281;HTU21D;63874;47.230;39.620;2022-12-20T16:24:23;-0.56;66.27
75281;HTU21D;63874;47.230;39.620;2022-12-20T16:26:49;-0.59;66.34
75281;HTU21D;63874;47.230;39.620;2022-12-20T16:29:16;-0.60;66.38
75281;HTU21D;63874;47.230;39.620;2022-12-20T16:31:42;-0.66;66.43
75281;HTU21D;63874;47.230;39.620;2022-12-20T16:34:13;-0.72;66.49
75281;HTU21D;63874;47.230;39.620;2022-12-20T16:36:39;-0.80;66.56
75281;HTU21D;63874;47.230;39.620;2022-12-20T16:39:05;-0.85;66.81
75281;HTU21D;63874;47.230;39.620;2022-12-20T16:41:32;-0.89;67.01
75281;HTU21D;63874;47.230;39.620;2022-12-20T16:44:00;-0.93;67.22
75281;HTU21D;63874;47.230;39.620;2022-12-20T16:46:28;-0.94;67.33
75281;HTU21D;63874;47.230;39.620;2022-12-20T16:48:55;-0.96;67.49
75281;HTU21D;63874;47.230;39.620;2022-12-20T16:51:30;-0.96;67.57
75281;HTU21D;63874;47.230;39.620;2022-12-20T16:54:06;-0.97;67.60
75281;HTU21D;63874;47.230;39.620;2022-12-20T16:56:32;-0.99;67.64
75281;HTU21D;63874;47.230;39.620;2022-12-20T16:58:58;-0.98;67.73
75281;HTU21D;63874;47.230;39.620;2022-12-20T17:01:30;-0.97;67.88
75281;HTU21D;63874;47.230;39.620;2022-12-20T17:03:57;-0.97;67.94
75281;HTU21D;63874;47.230;39.620;2022-12-20T17:06:23;-0.98;68.11
75281;HTU21D;63874;47.230;39.620;2022-12-20T17:08:49;-0.97;68.13
75281;HTU21D;63874;47.230;39.620;2022-12-20T17:11:19;-0.95;68.29
75281;HTU21D;63874;47.230;39.620;2022-12-20T17:13:46;-0.94;68.46
75281;HTU21D;63874;47.230;39.620;2022-12-20T17:16:14;-0.95;68.38
75281;HTU21D;63874;47.230;39.620;2022-12-20T17:18:42;-0.94;68.44
75281;HTU21D;63874;47.230;39.620;2022-12-20T17:21:23;-0.94;68.60
75281;HTU21D;63874;47.230;39.620;2022-12-20T17:23:51;-0.96;68.68
75281;HTU21D;63874;47.230;39.620;2022-12-20T17:26:29;-0.95;68.77